Time;durP1;ratioP1;P1;durP2;ratioP2;P2;SDS_P1;SDS_P2;PMS_P1;PMS_P2;Temp;Humidity;BMP_temperature;BMP_pressure;BME280_temperature;BME280_humidity;BME280_pressure;Samples;Min_cycle;Max_cycle;Signal;HPM_P1;HPM_P2
2023/04/28 00:00:49;;;;;;;10.20;3.97;;;;;;;9.25;100.00;-18277.22;4992117;28;20037;-80
2023/04/28 00:03:15;;;;;;;9.63;4.57;;;;;;;9.24;100.00;-18276.81;4998591;28;20042;-80
2023/04/28 00:05:41;;;;;;;6.63;3.92;;;;;;;9.26;100.00;-18277.50;4996614;28;20035;-79
2023/04/28 00:08:06;;;;;;;9.10;4.05;;;;;;;9.22;100.00;-18276.25;5000544;28;20050;-79
2023/04/28 00:10:32;;;;;;;7.03;4.10;;;;;;;9.23;100.00;-18276.53;4998930;28;20042;-79
2023/04/28 00:12:57;;;;;;;14.68;4.00;;;;;;;9.22;100.00;-18276.41;5001510;28;20116;-80
2023/04/28 00:15:23;;;;;;;7.05;4.35;;;;;;;9.20;100.00;-18275.72;4991005;28;20042;-80
2023/04/28 00:17:49;;;;;;;6.97;4.03;;;;;;;9.12;100.00;-18273.50;4997510;28;20050;-80
2023/04/28 00:20:14;;;;;;;7.20;4.38;;;;;;;9.06;100.00;-18271.84;5001502;28;20046;-80
2023/04/28 00:22:40;;;;;;;7.78;4.10;;;;;;;9.01;100.00;-18270.63;4995667;28;20042;-80
2023/04/28 00:25:06;;;;;;;7.05;4.03;;;;;;;9.06;100.00;-18272.00;4991695;28;20046;-80
2023/04/28 00:27:32;;;;;;;8.43;4.00;;;;;;;9.01;100.00;-18270.75;4994594;28;20050;-80
2023/04/28 00:29:57;;;;;;;7.82;3.95;;;;;;;8.92;100.00;-18268.16;4996324;28;20050;-80
2023/04/28 00:32:23;;;;;;;7.70;4.15;;;;;;;8.81;100.00;-18265.41;4990912;28;20380;-80
2023/04/28 00:34:48;;;;;;;7.05;4.25;;;;;;;8.79;100.00;-18264.72;4989446;28;20066;-79
2023/04/28 00:37:13;;;;;;;5.38;3.92;;;;;;;8.83;100.00;-18265.81;4995924;28;20034;-80
2023/04/28 00:39:40;;;;;;;7.70;4.05;;;;;;;8.88;100.00;-18267.03;4988964;28;20042;-80
2023/04/28 00:42:06;;;;;;;6.80;4.03;;;;;;;8.92;100.00;-18268.16;4990583;28;20084;-80
2023/04/28 00:44:31;;;;;;;5.68;3.53;;;;;;;8.93;100.00;-18268.41;4995720;28;20129;-80
2023/04/28 00:46:58;;;;;;;6.50;3.80;;;;;;;8.92;100.00;-18268.16;4996873;28;22000;-79
2023/04/28 00:49:24;;;;;;;8.85;4.22;;;;;;;8.90;100.00;-18267.59;4994307;28;20100;-80
2023/04/28 00:51:49;;;;;;;6.90;4.18;;;;;;;8.89;100.00;-18267.31;4989967;28;20077;-80
2023/04/28 00:54:15;;;;;;;7.38;4.10;;;;;;;8.89;100.00;-18267.47;4993308;28;20478;-80
2023/04/28 00:56:41;;;;;;;7.72;4.43;;;;;;;8.84;100.00;-18266.09;4991592;28;20170;-80
2023/04/28 00:59:07;;;;;;;6.30;3.92;;;;;;;8.87;100.00;-18266.91;4992201;28;20042;-79
2023/04/28 01:01:34;;;;;;;9.95;4.30;;;;;;;8.86;100.00;-18266.50;4990138;28;20045;-80
2023/04/28 01:03:59;;;;;;;7.93;4.03;;;;;;;8.87;100.00;-18266.78;4990240;28;20042;-80
2023/04/28 01:06:27;;;;;;;7.30;4.00;;;;;;;8.79;100.00;-18264.84;4992967;28;20065;-79
2023/04/28 01:08:53;;;;;;;7.38;4.20;;;;;;;8.83;100.00;-18265.81;4987404;28;20077;-80
2023/04/28 01:11:18;;;;;;;9.23;4.65;;;;;;;8.80;100.00;-18265.13;4989934;28;20065;-79
2023/04/28 01:13:43;;;;;;;8.32;4.32;;;;;;;8.80;100.00;-18264.97;4993025;28;20042;-80
2023/04/28 01:16:09;;;;;;;6.10;4.38;;;;;;;8.72;100.00;-18262.91;4990275;28;20053;-80
2023/04/28 01:18:34;;;;;;;8.27;4.80;;;;;;;8.74;100.00;-18263.47;4991288;28;20041;-79
2023/04/28 01:21:00;;;;;;;6.15;4.18;;;;;;;8.79;100.00;-18264.72;4988936;28;20111;-79
2023/04/28 01:23:25;;;;;;;9.05;4.47;;;;;;;8.79;100.00;-18264.84;4985083;28;20093;-80
2023/04/28 01:25:50;;;;;;;7.47;4.65;;;;;;;8.77;100.00;-18264.28;4988984;28;20038;-79
2023/04/28 01:28:16;;;;;;;7.00;4.13;;;;;;;8.76;100.00;-18264.00;4987611;28;20042;-79
2023/04/28 01:30:41;;;;;;;7.72;4.57;;;;;;;8.76;100.00;-18264.00;4988242;28;20045;-80
2023/04/28 01:33:07;;;;;;;9.82;5.10;;;;;;;8.81;100.00;-18265.25;4989917;28;20044;-79
2023/04/28 01:35:32;;;;;;;6.15;3.92;;;;;;;8.87;100.00;-18266.91;4988945;28;20115;-79
2023/04/28 01:37:57;;;;;;;9.88;4.80;;;;;;;8.87;100.00;-18266.91;4987155;28;20441;-79
2023/04/28 01:40:23;;;;;;;7.60;4.63;;;;;;;8.88;100.00;-18267.19;4989042;28;20042;-79
2023/04/28 01:42:48;;;;;;;8.30;5.22;;;;;;;8.87;100.00;-18266.78;4986460;28;20034;-80
2023/04/28 01:45:13;;;;;;;8.32;4.55;;;;;;;8.89;100.00;-18267.47;4989437;28;20042;-80
2023/04/28 01:47:39;;;;;;;7.43;4.57;;;;;;;8.93;100.00;-18268.41;4988709;28;20065;-80
2023/04/28 01:50:05;;;;;;;7.07;4.70;;;;;;;9.02;100.00;-18270.91;4991584;28;20497;-80
2023/04/28 01:52:30;;;;;;;8.55;4.88;;;;;;;8.94;100.00;-18268.69;4995179;28;20129;-80
2023/04/28 01:55:14;;;;;;;7.53;4.55;;;;;;;8.95;100.00;-18268.97;4990531;28;20125;-79
2023/04/28 01:57:39;;;;;;;7.18;4.70;;;;;;;9.00;100.00;-18270.34;4991185;28;20068;-79
2023/04/28 02:00:05;;;;;;;9.15;5.00;;;;;;;8.94;100.00;-18268.69;4989234;28;20494;-79
2023/04/28 02:02:31;;;;;;;9.40;4.75;;;;;;;8.91;100.00;-18267.88;4987692;28;20141;-80
2023/04/28 02:04:57;;;;;;;8.23;4.80;;;;;;;8.91;100.00;-18268.00;4989593;28;20136;-80
2023/04/28 02:07:22;;;;;;;7.68;4.85;;;;;;;8.77;100.00;-18264.16;4989778;28;20070;-80
2023/04/28 02:09:47;;;;;;;8.05;4.93;;;;;;;8.81;100.00;-18265.41;5007081;28;20048;-80
2023/04/28 02:12:13;;;;;;;8.50;4.78;;;;;;;8.78;100.00;-18264.44;4990617;28;20065;-80
2023/04/28 02:14:38;;;;;;;10.00;4.93;;;;;;;8.79;100.00;-18264.72;4993472;28;20133;-79
2023/04/28 02:17:04;;;;;;;9.35;4.55;;;;;;;8.77;100.00;-18264.28;4988740;28;20084;-80
2023/04/28 02:19:29;;;;;;;9.02;5.10;;;;;;;8.81;100.00;-18265.25;4987698;28;20541;-80
2023/04/28 02:21:55;;;;;;;9.93;5.68;;;;;;;8.79;100.00;-18264.84;4989287;28;20133;-81
2023/04/28 02:24:20;;;;;;;7.85;5.20;;;;;;;8.82;100.00;-18265.66;4992872;28;20049;-81
2023/04/28 02:26:45;;;;;;;9.13;4.70;;;;;;;8.80;100.00;-18264.97;4995648;28;20107;-81
2023/04/28 02:29:11;;;;;;;8.93;5.25;;;;;;;8.88;100.00;-18267.19;4996545;28;20133;-81
2023/04/28 02:31:36;;;;;;;9.18;5.28;;;;;;;8.90;100.00;-18267.59;4990128;28;20053;-81
2023/04/28 02:34:02;;;;;;;9.80;4.97;;;;;;;8.92;100.00;-18268.16;4992447;28;20446;-81
2023/04/28 02:36:27;;;;;;;7.38;5.30;;;;;;;8.91;100.00;-18267.88;4993609;28;20050;-81
2023/04/28 02:38:52;;;;;;;11.95;5.82;;;;;;;8.93;100.00;-18268.41;4994891;28;20049;-81
2023/04/28 02:41:18;;;;;;;10.65;5.47;;;;;;;8.93;100.00;-18268.41;4993603;28;20098;-81
2023/04/28 02:43:43;;;;;;;8.65;5.45;;;;;;;8.79;100.00;-18264.84;4993270;28;20045;-82
2023/04/28 02:46:10;;;;;;;9.65;6.50;;;;;;;8.76;100.00;-18263.88;4992632;28;20038;-81
2023/04/28 02:48:36;;;;;;;9.38;6.47;;;;;;;8.67;100.00;-18261.53;4992908;28;20042;-81
2023/04/28 02:51:01;;;;;;;10.93;6.32;;;;;;;8.66;100.00;-18261.13;4999768;28;20042;-81
2023/04/28 02:53:27;;;;;;;8.32;5.88;;;;;;;8.65;100.00;-18261.00;4998414;28;20104;-80
2023/04/28 02:55:53;;;;;;;8.52;6.05;;;;;;;8.61;100.00;-18259.88;4992662;28;20070;-80
2023/04/28 02:58:18;;;;;;;10.43;6.80;;;;;;;8.51;100.00;-18257.28;4992069;28;20035;-80
2023/04/28 03:00:43;;;;;;;11.55;6.60;;;;;;;8.48;100.00;-18256.44;4998704;28;20054;-81
2023/04/28 03:03:09;;;;;;;8.82;5.88;;;;;;;8.51;100.00;-18257.13;4991613;28;20066;-80
2023/04/28 03:05:34;;;;;;;9.90;5.95;;;;;;;8.49;100.00;-18256.72;4993123;28;20045;-80
2023/04/28 03:08:00;;;;;;;9.45;5.80;;;;;;;8.50;100.00;-18257.00;4996107;28;20046;-80
2023/04/28 03:10:25;;;;;;;10.23;5.95;;;;;;;8.48;100.00;-18256.31;4995274;28;20046;-80
2023/04/28 03:12:51;;;;;;;9.70;6.25;;;;;;;8.49;100.00;-18256.59;4993450;28;20038;-80
2023/04/28 03:15:16;;;;;;;8.60;6.55;;;;;;;8.49;100.00;-18256.59;4995179;28;20052;-81
2023/04/28 03:17:42;;;;;;;12.00;6.25;;;;;;;8.48;100.00;-18256.31;4990243;28;20049;-81
2023/04/28 03:20:08;;;;;;;13.25;5.97;;;;;;;8.47;100.00;-18256.16;4994250;28;20049;-80
2023/04/28 03:22:34;;;;;;;11.40;6.47;;;;;;;8.54;100.00;-18257.97;4991676;28;20560;-80
2023/04/28 03:24:59;;;;;;;10.07;6.45;;;;;;;8.46;100.00;-18255.91;4992695;28;20046;-80
2023/04/28 03:27:25;;;;;;;8.68;6.05;;;;;;;8.40;100.00;-18254.09;4993935;28;20069;-79
2023/04/28 03:29:51;;;;;;;13.32;6.70;;;;;;;8.54;100.00;-18257.97;4998193;28;20042;-80
2023/04/28 03:32:16;;;;;;;10.73;6.22;;;;;;;8.63;100.00;-18260.31;4994800;28;20049;-80
2023/04/28 03:34:41;;;;;;;11.55;6.80;;;;;;;8.58;100.00;-18259.06;4990970;28;20049;-79
2023/04/28 03:37:07;;;;;;;8.95;6.93;;;;;;;8.70;100.00;-18262.22;4996719;28;20113;-79
2023/04/28 03:39:32;;;;;;;11.27;6.68;;;;;;;8.63;100.00;-18260.44;4990486;28;20065;-80
2023/04/28 03:41:57;;;;;;;10.63;6.25;;;;;;;8.60;100.00;-18259.63;4996542;28;20049;-80
2023/04/28 03:44:23;;;;;;;9.02;6.50;;;;;;;8.74;100.00;-18263.47;4991962;28;20038;-79
2023/04/28 03:46:49;;;;;;;10.57;6.38;;;;;;;8.73;100.00;-18263.19;4992037;28;20030;-80
2023/04/28 03:49:14;;;;;;;9.70;6.75;;;;;;;8.74;100.00;-18263.31;4993989;28;20080;-80
2023/04/28 03:51:39;;;;;;;10.38;7.00;;;;;;;8.71;100.00;-18262.63;4992299;28;20557;-79
2023/04/28 03:54:05;;;;;;;9.93;6.80;;;;;;;8.77;100.00;-18264.16;4993401;28;20045;-80
2023/04/28 03:56:30;;;;;;;9.88;6.78;;;;;;;8.59;100.00;-18259.47;4992162;28;20080;-80
2023/04/28 03:58:56;;;;;;;10.57;7.07;;;;;;;8.66;100.00;-18261.28;4992583;28;20043;-80
2023/04/28 04:01:21;;;;;;;11.02;6.90;;;;;;;8.65;100.00;-18261.00;4993014;28;21339;-80
2023/04/28 04:03:47;;;;;;;12.80;7.60;;;;;;;8.62;100.00;-18260.16;4996707;28;20061;-80
2023/04/28 04:06:12;;;;;;;11.98;6.53;;;;;;;8.46;100.00;-18255.91;4995965;28;20046;-80
2023/04/28 04:08:38;;;;;;;13.73;7.28;;;;;;;8.45;100.00;-18255.63;4991737;28;20409;-79
2023/04/28 04:11:03;;;;;;;10.60;7.20;;;;;;;8.45;100.00;-18255.63;4997623;28;20505;-79
2023/04/28 04:13:28;;;;;;;10.82;6.90;;;;;;;8.48;100.00;-18256.31;5000082;28;20494;-80
2023/04/28 04:15:54;;;;;;;9.60;7.00;;;;;;;8.49;100.00;-18256.59;4991831;28;20065;-80
2023/04/28 04:18:20;;;;;;;12.88;7.72;;;;;;;8.57;100.00;-18258.94;4996206;28;20042;-80
2023/04/28 04:20:45;;;;;;;9.45;7.32;;;;;;;8.54;100.00;-18258.09;4996942;28;20038;-82
2023/04/28 04:23:10;;;;;;;11.52;7.40;;;;;;;8.56;100.00;-18258.66;4989951;28;21747;-81
2023/04/28 04:25:36;;;;;;;12.85;7.68;;;;;;;8.71;100.00;-18262.63;4986833;28;20054;-80
2023/04/28 04:28:01;;;;;;;12.57;8.00;;;;;;;8.75;100.00;-18263.75;4983427;28;20653;-81
2023/04/28 04:30:26;;;;;;;16.60;8.45;;;;;;;8.72;100.00;-18262.78;4981416;28;20610;-81
2023/04/28 04:32:52;;;;;;;13.60;8.02;;;;;;;8.58;100.00;-18259.06;4979365;28;20310;-81
2023/04/28 04:35:17;;;;;;;10.20;7.32;;;;;;;8.59;100.00;-18259.34;4987480;28;20046;-81
2023/04/28 04:37:43;;;;;;;12.10;7.45;;;;;;;8.58;100.00;-18259.06;4980720;28;20498;-81
2023/04/28 04:40:09;;;;;;;13.15;8.00;;;;;;;8.64;100.00;-18260.72;4982406;28;21612;-81
2023/04/28 04:42:34;;;;;;;13.57;8.18;;;;;;;8.67;100.00;-18261.53;4983139;28;20042;-81
2023/04/28 04:45:00;;;;;;;16.73;8.57;;;;;;;8.71;100.00;-18262.63;4985836;28;20042;-81
2023/04/28 04:47:25;;;;;;;13.23;8.55;;;;;;;8.73;100.00;-18263.06;4991873;28;20034;-81
2023/04/28 04:49:51;;;;;;;14.32;9.07;;;;;;;8.86;100.00;-18266.50;4986046;28;20501;-81
2023/04/28 04:52:16;;;;;;;17.20;9.45;;;;;;;8.69;100.00;-18262.09;4989585;28;20089;-81
2023/04/28 04:54:42;;;;;;;13.07;9.68;;;;;;;8.77;100.00;-18264.16;4988051;28;20041;-81
2023/04/28 04:57:07;;;;;;;13.45;9.05;;;;;;;8.77;100.00;-18264.28;4989770;28;20038;-81
2023/04/28 04:59:33;;;;;;;15.68;10.15;;;;;;;8.76;100.00;-18264.00;4983710;28;20066;-81
2023/04/28 05:01:58;;;;;;;15.52;9.75;;;;;;;8.79;100.00;-18264.72;4987528;28;20169;-81
2023/04/28 05:04:23;;;;;;;15.27;9.80;;;;;;;8.76;100.00;-18263.88;4990759;28;20050;-81
2023/04/28 05:06:49;;;;;;;16.17;9.98;;;;;;;8.72;100.00;-18262.78;4989678;28;20057;-81
2023/04/28 05:09:14;;;;;;;15.32;9.88;;;;;;;8.74;100.00;-18263.47;4989752;28;20113;-80
2023/04/28 05:11:40;;;;;;;13.75;9.85;;;;;;;8.76;100.00;-18264.00;4988489;28;20045;-80
2023/04/28 05:14:05;;;;;;;15.45;10.18;;;;;;;8.76;100.00;-18263.88;4989172;28;20405;-81
2023/04/28 05:16:31;;;;;;;16.35;9.52;;;;;;;8.79;100.00;-18264.84;4989439;28;20038;-81
2023/04/28 05:18:59;;;;;;;14.23;10.82;;;;;;;8.78;100.00;-18264.44;4987041;28;20046;-80
2023/04/28 05:21:24;;;;;;;15.07;10.07;;;;;;;8.81;100.00;-18265.41;4982850;28;20105;-80
2023/04/28 05:23:50;;;;;;;15.40;10.98;;;;;;;8.88;100.00;-18267.19;4989612;28;20467;-81
2023/04/28 05:26:15;;;;;;;14.13;10.15;;;;;;;8.90;100.00;-18267.59;4994904;28;20472;-81
2023/04/28 05:28:41;;;;;;;16.73;10.77;;;;;;;8.95;100.00;-18268.97;4986457;28;20048;-80
2023/04/28 05:31:06;;;;;;;18.30;10.80;;;;;;;9.01;100.00;-18270.63;4986422;28;20046;-80
2023/04/28 05:33:32;;;;;;;16.02;10.55;;;;;;;9.04;100.00;-18271.44;4993478;28;20042;-80
2023/04/28 05:35:57;;;;;;;17.30;10.70;;;;;;;8.98;100.00;-18269.81;4986204;28;20050;-80
2023/04/28 05:38:23;;;;;;;15.98;10.52;;;;;;;9.04;100.00;-18271.59;4986119;28;20046;-80
2023/04/28 05:40:48;;;;;;;15.77;10.48;;;;;;;9.15;100.00;-18274.47;4987033;28;20050;-80
2023/04/28 05:43:14;;;;;;;15.63;11.35;;;;;;;9.18;100.00;-18275.31;4988212;28;20128;-80
2023/04/28 05:45:39;;;;;;;16.73;11.23;;;;;;;9.24;100.00;-18276.94;4987256;28;20042;-80
2023/04/28 05:48:05;;;;;;;16.23;11.48;;;;;;;9.22;100.00;-18276.25;4986980;28;20134;-80
2023/04/28 05:50:31;;;;;;;16.88;11.52;;;;;;;9.25;100.00;-18277.09;4985667;28;20058;-80
2023/04/28 05:52:56;;;;;;;15.60;11.98;;;;;;;9.32;100.00;-18278.88;4984082;28;20035;-80
2023/04/28 05:55:21;;;;;;;19.13;11.85;;;;;;;9.34;100.00;-18279.56;4986371;28;20418;-80
2023/04/28 05:57:47;;;;;;;20.33;10.90;;;;;;;9.38;100.00;-18280.53;4987157;28;20069;-80
2023/04/28 06:00:13;;;;;;;17.33;12.25;;;;;;;9.44;100.00;-18282.19;4986338;28;20393;-80
2023/04/28 06:02:42;;;;;;;17.60;12.48;;;;;;;9.52;100.00;-18284.38;4984847;28;20100;-81
2023/04/28 06:05:08;;;;;;;20.13;11.98;;;;;;;9.59;100.00;-18286.16;4987275;28;20046;-81
2023/04/28 06:07:33;;;;;;;18.65;12.10;;;;;;;9.63;100.00;-18287.25;4985942;28;20030;-82
2023/04/28 06:09:59;;;;;;;18.23;11.85;;;;;;;9.61;100.00;-18286.84;4994036;28;20060;-82
2023/04/28 06:12:25;;;;;;;16.90;11.80;;;;;;;9.66;100.00;-18288.22;4994044;28;20042;-82
2023/04/28 06:14:54;;;;;;;15.60;11.43;;;;;;;9.70;100.00;-18289.19;4992104;28;20038;-82
2023/04/28 06:17:19;;;;;;;18.40;12.20;;;;;;;9.79;100.00;-18291.53;4990479;28;20034;-82
2023/04/28 06:19:44;;;;;;;18.17;12.43;;;;;;;9.86;100.00;-18293.59;4989619;28;20037;-82
2023/04/28 06:22:10;;;;;;;17.35;12.48;;;;;;;9.95;100.00;-18295.94;4992740;28;20046;-82
2023/04/28 06:24:35;;;;;;;17.27;11.95;;;;;;;10.00;100.00;-18297.31;4992911;28;20041;-82
2023/04/28 06:27:01;;;;;;;17.83;13.35;;;;;;;10.19;100.00;-18302.25;4995038;28;20046;-82
2023/04/28 06:29:27;;;;;;;19.85;12.15;;;;;;;10.15;100.00;-18301.28;4994062;28;20039;-82
2023/04/28 06:31:56;;;;;;;17.17;12.38;;;;;;;10.22;100.00;-18303.06;4992813;28;20042;-82
2023/04/28 06:34:25;;;;;;;21.23;12.82;;;;;;;10.24;100.00;-18303.75;4991223;28;20046;-82
2023/04/28 06:36:51;;;;;;;16.83;12.98;;;;;;;10.25;100.00;-18303.91;4992907;28;20050;-82
2023/04/28 06:39:16;;;;;;;17.02;12.80;;;;;;;10.24;100.00;-18303.63;4994246;28;20046;-82
2023/04/28 06:41:42;;;;;;;23.30;14.05;;;;;;;10.34;100.00;-18306.38;4990572;28;20046;-82
2023/04/28 06:44:07;;;;;;;17.67;13.52;;;;;;;10.36;100.00;-18306.94;4988713;28;20077;-82
2023/04/28 06:46:32;;;;;;;18.35;13.23;;;;;;;10.46;100.00;-18309.69;4993295;28;20045;-83
2023/04/28 06:48:58;;;;;;;22.05;14.05;;;;;;;10.46;100.00;-18309.53;4992750;28;20050;-83
2023/04/28 06:51:23;;;;;;;20.25;13.93;;;;;;;10.48;100.00;-18310.22;4994398;28;20536;-83
2023/04/28 06:53:51;;;;;;;18.58;14.20;;;;;;;10.42;100.00;-18308.56;4994727;28;20454;-83
2023/04/28 06:56:17;;;;;;;20.25;15.00;;;;;;;10.52;100.00;-18311.31;4994644;28;20744;-82
2023/04/28 06:58:42;;;;;;;21.08;14.70;;;;;;;10.50;100.00;-18310.78;4995435;28;20039;-83
2023/04/28 07:01:08;;;;;;;20.35;15.85;;;;;;;10.43;100.00;-18308.84;5014405;28;20042;-83
2023/04/28 07:03:33;;;;;;;20.48;14.32;;;;;;;10.48;100.00;-18310.09;5000635;28;20061;-83
2023/04/28 07:05:58;;;;;;;20.55;15.27;;;;;;;10.47;100.00;-18309.94;4999285;28;20042;-83
2023/04/28 07:08:24;;;;;;;21.92;14.85;;;;;;;10.50;100.00;-18310.78;5004380;28;20046;-83
2023/04/28 07:10:49;;;;;;;19.27;14.30;;;;;;;10.58;100.00;-18312.84;4997924;28;20042;-83
2023/04/28 07:13:14;;;;;;;21.33;14.23;;;;;;;10.53;100.00;-18311.47;4998758;28;20045;-83
2023/04/28 07:15:40;;;;;;;21.13;14.88;;;;;;;10.57;100.00;-18312.69;5014166;28;20133;-83
2023/04/28 07:18:06;;;;;;;18.52;13.57;;;;;;;10.60;100.00;-18313.53;4999772;28;20097;-83
2023/04/28 07:20:31;;;;;;;21.67;13.82;;;;;;;10.65;100.00;-18314.63;4999748;28;20707;-83
2023/04/28 07:22:56;;;;;;;22.88;15.50;;;;;;;10.65;100.00;-18314.63;4999548;28;20043;-83
2023/04/28 07:25:22;;;;;;;20.63;15.68;;;;;;;10.67;100.00;-18315.16;5000744;28;20038;-83
2023/04/28 07:27:47;;;;;;;22.85;15.82;;;;;;;10.60;100.00;-18313.53;4995048;28;20039;-83
2023/04/28 07:30:13;;;;;;;22.10;16.08;;;;;;;10.60;100.00;-18313.53;4992550;28;20042;-83
2023/04/28 07:32:38;;;;;;;27.42;17.27;;;;;;;10.69;100.00;-18315.72;4979261;28;20034;-83
2023/04/28 07:35:04;;;;;;;25.90;18.23;;;;;;;10.67;100.00;-18315.16;4992118;28;20536;-83
2023/04/28 07:37:29;;;;;;;24.67;18.35;;;;;;;10.60;100.00;-18313.53;4993016;28;20490;-83
2023/04/28 07:39:55;;;;;;;26.55;19.08;;;;;;;10.47;100.00;-18309.94;4992128;28;20045;-82
2023/04/28 07:42:21;;;;;;;28.83;20.52;;;;;;;10.45;100.00;-18309.25;4991147;28;20038;-82
2023/04/28 07:44:46;;;;;;;25.77;19.60;;;;;;;10.54;100.00;-18311.88;4992701;28;20053;-82
2023/04/28 07:47:12;;;;;;;26.95;19.63;;;;;;;10.56;100.00;-18312.44;4986922;28;20038;-82
2023/04/28 07:49:37;;;;;;;28.98;20.75;;;;;;;10.52;100.00;-18311.31;4986517;28;20034;-82
2023/04/28 07:52:03;;;;;;;27.42;19.95;;;;;;;10.51;100.00;-18311.06;4993763;28;20057;-82
2023/04/28 07:54:28;;;;;;;28.92;21.83;;;;;;;10.52;100.00;-18311.19;4993600;28;20120;-82
2023/04/28 07:56:55;;;;;;;29.95;21.27;;;;;;;10.61;100.00;-18313.66;4993256;28;20049;-82
2023/04/28 07:59:20;;;;;;;31.38;21.60;;;;;;;10.72;100.00;-18316.53;4993163;28;20098;-82
2023/04/28 08:01:46;;;;;;;29.95;22.00;;;;;;;10.79;100.00;-18318.59;5008451;28;20078;-82
2023/04/28 08:04:11;;;;;;;30.40;23.27;;;;;;;10.58;100.00;-18312.84;4994394;28;20073;-82
2023/04/28 08:06:37;;;;;;;32.95;22.38;;;;;;;10.50;100.00;-18310.63;4993178;28;20031;-82
2023/04/28 08:09:04;;;;;;;32.50;23.27;;;;;;;10.52;100.00;-18311.31;4994343;28;20053;-82
2023/04/28 08:11:30;;;;;;;32.47;23.77;;;;;;;10.61;100.00;-18313.66;4994595;28;20058;-82
2023/04/28 08:14:00;;;;;;;28.55;22.65;;;;;;;10.52;100.00;-18311.31;4995268;28;20034;-82
2023/04/28 08:16:26;;;;;;;29.75;23.38;;;;;;;10.59;100.00;-18313.25;4995349;28;20545;-83
2023/04/28 08:18:51;;;;;;;31.65;24.40;;;;;;;10.77;100.00;-18317.91;4995046;28;20058;-82
2023/04/28 08:21:16;;;;;;;31.73;23.85;;;;;;;10.77;100.00;-18317.91;4996795;28;20046;-83
2023/04/28 08:23:42;;;;;;;32.38;22.75;;;;;;;10.69;100.00;-18315.72;4995638;28;20038;-82
2023/04/28 08:26:07;;;;;;;30.17;22.23;;;;;;;10.83;100.00;-18319.56;4993144;28;20049;-83
2023/04/28 08:28:33;;;;;;;32.33;23.05;;;;;;;10.82;100.00;-18319.44;4993829;28;20486;-82
2023/04/28 08:30:59;;;;;;;32.05;22.98;;;;;;;10.81;100.00;-18319.00;4992600;28;20050;-83
2023/04/28 08:33:25;;;;;;;30.70;21.65;;;;;;;10.76;100.00;-18317.63;4995105;28;20042;-83
2023/04/28 08:35:50;;;;;;;31.50;22.23;;;;;;;10.82;100.00;-18319.28;4993396;28;20079;-83
2023/04/28 08:38:17;;;;;;;34.85;24.48;;;;;;;10.94;100.00;-18322.59;4995660;28;20379;-83
2023/04/28 08:40:43;;;;;;;31.98;22.83;;;;;;;11.04;100.00;-18325.34;4995658;28;20030;-83
2023/04/28 08:43:12;;;;;;;31.15;22.55;;;;;;;11.08;100.00;-18326.28;5003727;28;20041;-83
2023/04/28 08:45:42;;;;;;;29.13;22.25;;;;;;;11.08;100.00;-18326.28;4992066;28;20070;-83
2023/04/28 08:48:19;;;;;;;30.88;21.98;;;;;;;11.17;100.00;-18328.63;4995703;28;20126;-83
2023/04/28 08:50:53;;;;;;;30.25;22.00;;;;;;;11.24;100.00;-18330.56;4995757;28;20516;-83
2023/04/28 08:53:23;;;;;;;31.02;24.42;;;;;;;11.32;100.00;-18332.63;4997966;28;20038;-83
2023/04/28 08:55:55;;;;;;;28.83;22.73;;;;;;;11.37;100.00;-18334.13;4997294;28;20054;-83
2023/04/28 08:58:22;;;;;;;30.58;23.65;;;;;;;11.47;100.00;-18336.88;4997150;28;20034;-83
2023/04/28 09:00:48;;;;;;;33.58;24.05;;;;;;;11.60;100.00;-18340.16;5015803;28;20069;-83
2023/04/28 09:03:14;;;;;;;31.05;21.55;;;;;;;11.72;100.00;-18343.59;4997822;28;20042;-83
2023/04/28 09:05:39;;;;;;;27.65;22.08;;;;;;;11.84;100.00;-18346.75;4998012;28;20042;-82
2023/04/28 09:08:05;;;;;;;26.02;20.67;;;;;;;11.87;100.00;-18347.56;5005894;28;20334;-82
2023/04/28 09:10:30;;;;;;;25.80;20.15;;;;;;;12.02;100.00;-18351.56;5011078;28;20034;-82
2023/04/28 09:12:56;;;;;;;27.98;20.23;;;;;;;12.10;100.00;-18353.75;5005269;28;20099;-82
2023/04/28 09:15:37;;;;;;;27.15;20.02;;;;;;;12.32;100.00;-18359.66;5000078;28;20038;-82
2023/04/28 09:18:05;;;;;;;25.52;19.75;;;;;;;12.45;100.00;-18363.09;4997359;28;20050;-83
2023/04/28 09:20:32;;;;;;;24.42;18.58;;;;;;;12.50;100.00;-18364.31;4996692;28;20035;-83
2023/04/28 09:23:21;;;;;;;21.17;17.48;;;;;;;12.63;100.00;-18367.88;4997138;28;20149;-83
2023/04/28 09:26:06;;;;;;;20.90;17.23;;;;;;;12.77;100.00;-18371.72;5000484;28;20052;-83
2023/04/28 09:28:33;;;;;;;19.70;16.45;;;;;;;12.93;100.00;-18375.84;4998062;28;20030;-83
2023/04/28 09:30:59;;;;;;;23.67;16.20;;;;;;;13.12;100.00;-18381.03;4990361;28;20053;-84
2023/04/28 09:33:25;;;;;;;20.95;16.35;;;;;;;13.32;100.00;-18386.41;4996230;28;20043;-84
2023/04/28 09:35:52;;;;;;;19.73;14.75;;;;;;;13.45;100.00;-18389.81;4997131;28;20039;-84
2023/04/28 09:38:19;;;;;;;18.70;14.55;;;;;;;13.47;100.00;-18390.50;4998697;28;20100;-84
2023/04/28 09:40:58;;;;;;;22.35;15.40;;;;;;;13.56;100.00;-18392.69;4998307;28;20137;-84
2023/04/28 09:43:31;;;;;;;19.33;14.98;;;;;;;13.63;100.00;-18394.75;5021473;28;20042;-84
2023/04/28 09:45:58;;;;;;;22.25;15.10;;;;;;;13.72;100.00;-18397.22;5000842;28;20518;-84
2023/04/28 09:48:31;;;;;;;19.92;14.68;;;;;;;13.83;100.00;-18399.97;5003291;28;20090;-84
2023/04/28 09:50:58;;;;;;;19.25;14.57;;;;;;;13.86;100.00;-18400.78;5001121;28;20069;-83
2023/04/28 09:53:25;;;;;;;18.95;14.90;;;;;;;13.85;100.00;-18400.50;5002268;28;20062;-84
2023/04/28 09:55:55;;;;;;;19.95;16.08;;;;;;;13.86;100.00;-18400.78;5000255;28;20034;-84
2023/04/28 09:58:21;;;;;;;18.15;15.10;;;;;;;13.90;100.00;-18402.00;5000782;28;20578;-84
2023/04/28 10:00:58;;;;;;;22.40;17.08;;;;;;;14.12;100.00;-18407.91;5001572;28;20046;-84
2023/04/28 10:03:29;;;;;;;22.50;16.92;;;;;;;14.26;100.00;-18411.47;5002592;28;20088;-84
2023/04/28 10:05:56;;;;;;;19.40;15.55;;;;;;;14.43;100.00;-18416.13;5000538;28;20414;-84
2023/04/28 10:08:23;;;;;;;20.98;15.20;;;;;;;14.60;100.00;-18420.78;5000105;28;20054;-84
2023/04/28 10:10:51;;;;;;;21.13;16.50;;;;;;;14.45;100.00;-18416.81;4999325;28;20050;-84
2023/04/28 10:13:18;;;;;;;20.13;14.73;;;;;;;14.41;100.00;-18415.72;5017078;28;20042;-84
2023/04/28 10:15:45;;;;;;;20.10;16.35;;;;;;;14.38;100.00;-18414.88;5000697;28;20042;-84
2023/04/28 10:18:12;;;;;;;19.83;17.35;;;;;;;14.34;100.00;-18413.78;5000268;28;20050;-84
2023/04/28 10:20:38;;;;;;;21.05;17.90;;;;;;;14.47;100.00;-18417.22;5000438;28;20657;-84
2023/04/28 10:23:31;;;;;;;23.30;17.55;;;;;;;14.53;100.00;-18418.88;4999144;28;20137;-84
2023/04/28 10:26:01;;;;;;;24.27;18.02;;;;;;;14.56;100.00;-18419.53;5011539;28;20088;-86
2023/04/28 10:28:27;;;;;;;27.42;21.48;;;;;;;14.58;100.00;-18420.09;4994753;28;20053;-83
2023/04/28 10:31:12;;;;;;;26.02;21.40;;;;;;;14.63;100.00;-18421.59;4998067;28;20042;-83
2023/04/28 10:33:39;;;;;;;25.35;21.95;;;;;;;14.63;100.00;-18421.47;4998901;28;20112;-83
2023/04/28 10:36:06;;;;;;;25.65;20.75;;;;;;;14.56;100.00;-18419.69;4997655;28;20042;-83
2023/04/28 10:38:32;;;;;;;28.08;22.98;;;;;;;14.69;100.00;-18423.09;4997802;28;20066;-83
2023/04/28 10:41:02;;;;;;;27.23;21.60;;;;;;;14.76;100.00;-18425.03;4996871;28;20398;-83
2023/04/28 10:43:40;;;;;;;28.48;22.00;;;;;;;14.72;100.00;-18423.78;5013569;28;20689;-83
2023/04/28 10:46:07;;;;;;;28.33;23.00;;;;;;;14.69;100.00;-18422.97;4997520;28;20066;-83
2023/04/28 10:48:32;;;;;;;29.77;20.92;;;;;;;14.52;100.00;-18418.59;4998063;28;20050;-83
2023/04/28 10:51:04;;;;;;;27.95;23.58;;;;;;;14.52;100.00;-18418.59;4997690;28;20108;-83
2023/04/28 10:53:44;;;;;;;29.30;22.33;;;;;;;14.51;100.00;-18418.31;4999810;28;20077;-83
2023/04/28 10:56:11;;;;;;;29.08;22.73;;;;;;;14.49;100.00;-18417.75;4993795;28;20050;-83
2023/04/28 10:58:41;;;;;;;27.85;23.88;;;;;;;14.62;100.00;-18421.31;4998640;28;20046;-83
2023/04/28 11:01:35;;;;;;;29.40;24.63;;;;;;;14.55;100.00;-18419.41;4996211;28;20047;-83
2023/04/28 11:04:15;;;;;;;31.90;24.05;;;;;;;14.54;100.00;-18419.00;4980752;28;20069;-83
2023/04/28 11:06:45;;;;;;;30.73;23.92;;;;;;;14.45;100.00;-18416.66;4997192;28;20045;-83
2023/04/28 11:09:11;;;;;;;32.47;25.17;;;;;;;14.48;100.00;-18417.34;4998119;28;20130;-83